sim
Sign-in with your pilot id or email,
or register
Callsign
Passwort

Schedule Details

Flight Number: RYR34 (1)
Departure: Manchester Airport (EGCC) at 18:00
Arrival: Bratislava M. R. Stefanik Airport (LZIB) at 20:30
Route: Ryanair Passenger Schedule. Enter filed route here before submitting Pirep.

Weather Information
Getting current METAR information for EGCC 232120Z AUTO VRB02KT 5000 HZ NCD 08/08 Q1006 BECMG 4000 BR
Getting current METAR information for LZIB 232130Z 36004KT CAVOK 13/10 Q1017

Schedule Frequency

Route Map